Time;durP1;ratioP1;P1;durP2;ratioP2;P2;SDS_P1;SDS_P2;PMS_P1;PMS_P2;Temp;Humidity;BMP_temperature;BMP_pressure;BME280_temperature;BME280_humidity;BME280_pressure;Samples;Min_cycle;Max_cycle;Signal;HPM_P1;HPM_P2
2022/12/29 00:01:32;;;;;;;3.73;3.40;;;10.00;99.90;;;;;;4944708;28;20429;-70
2022/12/29 00:03:58;;;;;;;5.03;4.00;;;10.20;99.90;;;;;;4931517;29;20532;-71
2022/12/29 00:06:24;;;;;;;3.40;3.10;;;10.10;99.90;;;;;;4940385;28;20430;-71
2022/12/29 00:08:49;;;;;;;3.90;3.53;;;10.00;99.90;;;;;;4940877;28;21237;-70
2022/12/29 00:11:17;;;;;;;3.60;3.30;;;10.10;99.90;;;;;;4943021;28;20443;-71
2022/12/29 00:16:29;;;;;;;4.35;3.33;;;10.10;99.90;;;;;;4940209;28;20434;-71
2022/12/29 00:18:55;;;;;;;5.28;3.30;;;10.30;99.90;;;;;;4943435;29;20444;-70
2022/12/29 00:35:29;;;;;;;4.13;3.15;;;10.40;99.90;;;;;;4932576;28;20990;-71
2022/12/29 00:46:10;;;;;;;4.57;3.67;;;10.40;99.90;;;;;;4943664;28;20581;-70
2022/12/29 00:51:20;;;;;;;3.72;3.33;;;10.40;99.90;;;;;;4939286;28;20446;-71
2022/12/29 00:53:45;;;;;;;4.13;2.83;;;10.30;99.90;;;;;;4944135;28;20445;-72
2022/12/29 00:56:11;;;;;;;3.00;2.70;;;10.40;99.90;;;;;;4930449;28;20433;-69
2022/12/29 00:58:37;;;;;;;4.03;2.70;;;10.50;99.90;;;;;;4943507;28;20742;-71
2022/12/29 01:01:04;;;;;;;3.75;3.42;;;10.50;99.90;;;;;;4944810;28;20531;-71
2022/12/29 01:03:30;;;;;;;3.33;2.97;;;10.30;99.90;;;;;;4943195;28;20565;-70
2022/12/29 01:05:56;;;;;;;5.07;3.30;;;10.40;99.90;;;;;;4944962;28;20500;-71
2022/12/29 01:08:22;;;;;;;3.25;2.92;;;10.40;99.90;;;;;;4944070;28;20440;-70
2022/12/29 01:11:01;;;;;;;3.80;3.17;;;10.40;99.90;;;;;;4938899;28;20429;-70
2022/12/29 01:13:27;;;;;;;3.45;2.88;;;10.50;99.90;;;;;;4938104;28;20787;-70
2022/12/29 01:15:54;;;;;;;4.78;2.67;;;10.40;99.90;;;;;;4945047;29;20422;-72
2022/12/29 01:18:20;;;;;;;4.82;3.55;;;10.50;99.90;;;;;;4943233;28;20430;-71
2022/12/29 01:20:46;;;;;;;3.60;2.83;;;10.50;99.90;;;;;;4944946;28;20422;-71
2022/12/29 01:23:12;;;;;;;3.25;2.95;;;10.50;99.90;;;;;;4944291;28;20430;-70
2022/12/29 01:25:38;;;;;;;3.50;2.65;;;10.30;99.90;;;;;;4942208;28;20839;-70
2022/12/29 01:28:03;;;;;;;3.80;2.85;;;10.30;99.90;;;;;;4941359;28;20465;-71
2022/12/29 01:30:29;;;;;;;4.93;3.40;;;10.30;99.90;;;;;;4943670;28;20433;-70
2022/12/29 01:32:55;;;;;;;4.60;3.70;;;10.30;99.90;;;;;;4941298;29;20561;-71
2022/12/29 01:35:21;;;;;;;6.43;3.65;;;10.40;99.90;;;;;;4944544;28;20470;-71
2022/12/29 01:37:47;;;;;;;3.80;3.40;;;10.40;99.90;;;;;;4942663;28;20434;-71
2022/12/29 01:40:12;;;;;;;3.70;3.30;;;10.30;99.90;;;;;;4941580;28;20863;-70
2022/12/29 01:42:38;;;;;;;4.47;3.50;;;10.20;99.90;;;;;;4942689;28;20706;-71
2022/12/29 01:45:12;;;;;;;4.95;3.72;;;10.30;99.90;;;;;;4941707;28;20453;-70
2022/12/29 01:47:45;;;;;;;4.30;3.45;;;10.20;99.90;;;;;;4942558;28;20765;-72
2022/12/29 01:50:28;;;;;;;4.65;3.92;;;10.10;99.90;;;;;;4942463;28;20513;-71
2022/12/29 01:53:01;;;;;;;5.17;4.00;;;10.10;99.90;;;;;;4944080;28;20437;-71
2022/12/29 01:55:34;;;;;;;4.47;4.05;;;10.20;99.90;;;;;;4941265;29;20856;-71
2022/12/29 01:58:04;;;;;;;6.13;4.63;;;10.10;99.90;;;;;;4941711;28;20441;-70
2022/12/29 02:00:30;;;;;;;4.53;4.03;;;10.30;99.90;;;;;;4946193;28;20417;-72
2022/12/29 02:02:56;;;;;;;5.82;5.22;;;10.10;99.90;;;;;;4941569;28;20773;-71
2022/12/29 02:05:36;;;;;;;4.93;4.00;;;10.20;99.90;;;;;;4943075;28;20451;-71
2022/12/29 02:08:02;;;;;;;4.65;4.15;;;10.20;99.90;;;;;;4942703;28;20442;-71
2022/12/29 02:10:31;;;;;;;4.23;3.80;;;10.20;99.90;;;;;;4936163;28;20430;-72
2022/12/29 02:12:57;;;;;;;4.68;4.00;;;10.20;99.90;;;;;;4938152;28;20808;-74
2022/12/29 02:15:35;;;;;;;3.90;3.25;;;10.10;99.90;;;;;;4940193;28;20414;-71
2022/12/29 02:18:32;;;;;;;4.43;2.95;;;10.00;99.90;;;;;;4936197;28;20441;-71
2022/12/29 02:21:19;;;;;;;4.78;2.85;;;10.20;99.90;;;;;;4939262;28;20441;-71
2022/12/29 02:24:22;;;;;;;5.10;2.60;;;10.20;99.90;;;;;;4935469;29;20629;-70
2022/12/29 02:27:11;;;;;;;2.30;1.95;;;10.20;99.90;;;;;;4942438;28;20488;-70
2022/12/29 02:29:59;;;;;;;3.17;2.00;;;10.20;99.90;;;;;;4941757;28;20521;-71
2022/12/29 02:32:38;;;;;;;4.13;2.40;;;10.30;99.90;;;;;;4932885;28;20437;-71
2022/12/29 02:35:30;;;;;;;3.78;2.08;;;10.20;99.90;;;;;;4941471;28;20821;-71
2022/12/29 02:38:37;;;;;;;4.40;2.13;;;10.40;99.90;;;;;;4940971;28;20549;-71
2022/12/29 02:41:32;;;;;;;2.50;1.77;;;10.30;99.90;;;;;;4896423;29;20889;-71
2022/12/29 02:44:24;;;;;;;3.10;2.17;;;10.40;99.90;;;;;;4930170;28;20520;-70
2022/12/29 02:46:56;;;;;;;3.37;1.50;;;10.30;99.90;;;;;;4940617;28;20899;-71
2022/12/29 02:49:46;;;;;;;2.17;1.27;;;10.40;99.90;;;;;;4939436;28;20842;-71
2022/12/29 02:52:19;;;;;;;2.58;1.20;;;10.40;99.90;;;;;;4942079;28;20860;-71
2022/12/29 02:54:44;;;;;;;2.10;1.50;;;10.40;99.90;;;;;;4939618;29;20437;-70
2022/12/29 02:57:22;;;;;;;3.10;1.10;;;10.30;99.90;;;;;;4940851;28;20555;-71
2022/12/29 02:59:59;;;;;;;3.33;1.20;;;10.40;99.90;;;;;;4941682;28;20426;-71
2022/12/29 03:02:56;;;;;;;2.10;1.10;;;10.30;99.90;;;;;;4940507;28;20448;-72
2022/12/29 03:05:34;;;;;;;3.15;1.45;;;10.30;99.90;;;;;;4940418;28;20445;-71
2022/12/29 03:08:12;;;;;;;3.60;1.48;;;10.40;99.90;;;;;;4937214;29;20513;-70
2022/12/29 03:11:01;;;;;;;4.63;1.25;;;10.30;99.90;;;;;;4937904;28;20446;-70
2022/12/29 03:16:47;;;;;;;3.17;1.08;;;10.30;99.90;;;;;;4956255;28;20481;-70
2022/12/29 03:19:27;;;;;;;4.25;1.52;;;10.20;99.90;;;;;;4943759;28;21043;-70
2022/12/29 03:22:28;;;;;;;3.72;1.02;;;10.20;99.90;;;;;;4941964;28;20433;-72
2022/12/29 03:25:02;;;;;;;2.78;1.00;;;10.10;99.90;;;;;;4938710;28;20442;-72
2022/12/29 03:27:31;;;;;;;2.38;0.90;;;10.00;99.90;;;;;;4958896;28;20434;-70
2022/12/29 03:30:01;;;;;;;1.57;0.77;;;9.90;99.90;;;;;;4940215;28;20445;-72
2022/12/29 03:32:33;;;;;;;3.78;0.90;;;9.80;99.90;;;;;;4937712;28;20493;-71
2022/12/29 03:35:00;;;;;;;7.15;1.73;;;9.70;99.90;;;;;;4940244;28;20422;-71
2022/12/29 03:37:31;;;;;;;2.90;1.20;;;9.80;99.90;;;;;;4931747;28;20442;-71
2022/12/29 03:39:57;;;;;;;5.32;0.90;;;9.80;99.90;;;;;;4939259;28;20447;-72
2022/12/29 03:42:27;;;;;;;2.53;1.27;;;9.90;99.90;;;;;;4940479;28;20442;-70
2022/12/29 03:44:56;;;;;;;7.13;1.58;;;9.80;99.90;;;;;;4942053;28;20521;-71
2022/12/29 03:47:23;;;;;;;5.75;1.10;;;9.90;99.90;;;;;;4941645;28;20434;-71
2022/12/29 03:49:50;;;;;;;3.78;1.10;;;9.80;99.90;;;;;;4939784;28;20461;-69
2022/12/29 03:52:16;;;;;;;3.88;1.50;;;9.80;99.90;;;;;;4942404;28;20812;-72
2022/12/29 03:54:42;;;;;;;5.17;1.20;;;9.80;99.90;;;;;;4944377;28;20585;-71
2022/12/29 03:57:09;;;;;;;3.23;1.00;;;9.80;99.90;;;;;;4946834;28;21024;-71
2022/12/29 03:59:34;;;;;;;4.75;1.38;;;9.70;99.90;;;;;;4944844;28;20828;-71
2022/12/29 04:02:00;;;;;;;3.10;0.98;;;9.80;99.90;;;;;;4945288;28;20448;-70
2022/12/29 04:04:26;;;;;;;4.63;1.08;;;9.90;99.90;;;;;;4944785;28;20785;-69
2022/12/29 04:06:51;;;;;;;6.95;1.10;;;9.80;99.90;;;;;;4945358;28;20505;-69
2022/12/29 04:09:17;;;;;;;5.55;1.02;;;10.00;99.90;;;;;;4943386;28;20971;-71
2022/12/29 04:11:43;;;;;;;4.73;1.53;;;9.90;99.90;;;;;;4929055;29;20445;-70
2022/12/29 04:14:08;;;;;;;6.17;1.50;;;9.90;99.90;;;;;;4942659;28;21006;-71
2022/12/29 04:16:35;;;;;;;6.23;1.10;;;9.90;99.90;;;;;;4945746;28;20788;-71
2022/12/29 04:19:02;;;;;;;4.88;1.33;;;9.90;99.90;;;;;;4959961;28;20532;-70
2022/12/29 04:21:27;;;;;;;3.55;1.45;;;9.90;99.90;;;;;;4946047;29;20444;-71
2022/12/29 04:23:53;;;;;;;6.20;1.40;;;9.80;99.90;;;;;;4943897;28;20512;-71
2022/12/29 04:26:19;;;;;;;6.90;1.38;;;9.80;99.90;;;;;;4944355;28;20528;-70
2022/12/29 04:28:44;;;;;;;4.40;1.38;;;9.70;99.90;;;;;;4945561;28;20465;-72
2022/12/29 04:31:10;;;;;;;6.40;1.42;;;9.60;99.90;;;;;;4927279;28;20446;-70
2022/12/29 04:33:36;;;;;;;5.47;1.38;;;9.50;99.90;;;;;;4945271;28;20445;-72
2022/12/29 04:36:02;;;;;;;8.25;1.85;;;9.50;99.90;;;;;;4945725;28;20464;-70
2022/12/29 04:38:28;;;;;;;6.05;1.13;;;9.40;99.90;;;;;;4942598;28;20426;-70
2022/12/29 04:40:53;;;;;;;5.22;1.30;;;9.30;99.90;;;;;;4943450;28;20509;-70
2022/12/29 04:43:19;;;;;;;6.78;1.45;;;9.30;99.90;;;;;;4945099;29;20437;-71
2022/12/29 04:45:48;;;;;;;5.88;1.50;;;9.20;99.90;;;;;;4941663;28;20442;-71
2022/12/29 04:48:14;;;;;;;8.63;2.10;;;9.30;99.90;;;;;;4946866;28;20440;-70
2022/12/29 04:50:41;;;;;;;7.28;1.33;;;9.30;99.90;;;;;;4943818;28;21495;-70
2022/12/29 04:53:07;;;;;;;8.18;2.03;;;9.20;99.90;;;;;;4935860;28;20453;-71
2022/12/29 04:55:33;;;;;;;4.53;1.50;;;9.20;99.90;;;;;;4944282;28;20429;-71
2022/12/29 04:57:59;;;;;;;8.25;1.77;;;9.20;99.90;;;;;;4943646;28;20468;-70
2022/12/29 05:00:25;;;;;;;10.95;1.80;;;9.20;99.90;;;;;;4942410;28;20655;-69
2022/12/29 05:02:50;;;;;;;11.15;1.80;;;9.10;99.90;;;;;;4944170;28;20441;-71
2022/12/29 05:05:16;;;;;;;10.98;2.30;;;9.20;99.90;;;;;;4944746;28;20433;-70
2022/12/29 05:07:42;;;;;;;10.65;1.98;;;9.10;99.90;;;;;;4944586;28;20469;-70
2022/12/29 05:10:08;;;;;;;9.10;1.80;;;9.20;99.90;;;;;;4941482;28;20932;-70
2022/12/29 05:12:36;;;;;;;9.25;2.08;;;9.20;99.90;;;;;;4943679;28;20448;-71
2022/12/29 05:15:02;;;;;;;11.25;2.55;;;9.10;99.90;;;;;;4943545;28;20527;-70
2022/12/29 05:17:28;;;;;;;9.98;2.28;;;9.20;99.90;;;;;;4938521;28;20429;-69
2022/12/29 05:19:54;;;;;;;11.85;2.28;;;9.10;99.90;;;;;;4944095;28;20469;-70
2022/12/29 05:22:20;;;;;;;8.47;2.00;;;9.10;99.90;;;;;;4943473;28;20849;-71
2022/12/29 05:24:46;;;;;;;8.13;2.33;;;9.20;99.90;;;;;;4942651;28;20517;-71
2022/12/29 05:27:12;;;;;;;10.63;2.87;;;9.10;99.90;;;;;;4944794;28;20552;-69
2022/12/29 05:29:37;;;;;;;10.88;2.60;;;9.10;99.90;;;;;;4942740;28;20436;-70
2022/12/29 05:32:03;;;;;;;10.25;1.80;;;9.00;99.90;;;;;;4936929;28;20477;-70
2022/12/29 05:34:29;;;;;;;12.10;3.05;;;9.10;99.90;;;;;;4940774;28;20541;-69
2022/12/29 05:36:55;;;;;;;13.27;2.70;;;9.10;99.90;;;;;;4943805;28;20509;-70
2022/12/29 05:39:20;;;;;;;11.95;3.00;;;9.10;99.90;;;;;;4932083;28;20430;-71
2022/12/29 05:41:46;;;;;;;13.07;3.05;;;9.10;99.90;;;;;;4943246;28;20442;-71
2022/12/29 05:44:12;;;;;;;9.87;2.83;;;9.20;99.90;;;;;;4941382;28;20879;-70
2022/12/29 05:46:37;;;;;;;8.90;1.90;;;9.20;99.90;;;;;;4943571;28;20537;-70
2022/12/29 05:49:04;;;;;;;10.65;2.65;;;9.30;99.90;;;;;;4941760;28;20418;-70
2022/12/29 05:51:29;;;;;;;10.00;3.47;;;9.20;99.90;;;;;;4941711;28;20434;-70
2022/12/29 05:53:55;;;;;;;9.75;2.65;;;9.30;99.90;;;;;;4944024;28;20434;-69
2022/12/29 05:56:20;;;;;;;9.20;3.10;;;9.30;99.90;;;;;;4942396;28;20509;-70
2022/12/29 05:58:46;;;;;;;10.40;2.63;;;9.40;99.90;;;;;;4944565;29;20433;-70
2022/12/29 06:01:12;;;;;;;14.38;2.70;;;9.30;99.90;;;;;;4940834;28;20879;-70
2022/12/29 06:03:38;;;;;;;14.95;3.30;;;9.40;99.90;;;;;;4944008;28;20829;-70
2022/12/29 06:06:04;;;;;;;11.65;2.17;;;9.30;99.90;;;;;;4941985;28;20496;-70
2022/12/29 06:08:29;;;;;;;14.70;3.33;;;9.30;99.90;;;;;;4930145;28;20461;-70
2022/12/29 06:10:55;;;;;;;13.68;2.92;;;9.40;99.90;;;;;;4942946;28;21752;-70
2022/12/29 06:13:21;;;;;;;14.90;3.45;;;9.30;99.90;;;;;;4941459;28;20434;-71
2022/12/29 06:15:48;;;;;;;16.75;3.88;;;9.30;99.90;;;;;;4941576;28;20465;-70
2022/12/29 06:18:14;;;;;;;14.05;3.15;;;9.20;99.90;;;;;;4939046;29;20486;-70
2022/12/29 06:20:40;;;;;;;12.98;3.15;;;9.10;99.90;;;;;;4943086;28;20733;-70
2022/12/29 06:23:06;;;;;;;12.02;3.30;;;9.20;99.90;;;;;;4941801;28;20465;-70
2022/12/29 06:25:33;;;;;;;17.60;2.90;;;9.10;99.90;;;;;;4939842;28;20421;-69
2022/12/29 06:27:59;;;;;;;19.73;4.38;;;9.00;99.90;;;;;;4936642;28;20447;-70
2022/12/29 06:30:25;;;;;;;16.30;3.35;;;9.10;99.90;;;;;;4942176;28;20454;-70
2022/12/29 06:32:51;;;;;;;16.40;4.28;;;8.90;99.90;;;;;;4941783;28;20430;-69
2022/12/29 06:35:17;;;;;;;16.63;3.50;;;9.00;99.90;;;;;;4942976;28;20928;-70
2022/12/29 06:37:43;;;;;;;15.80;4.10;;;8.90;99.90;;;;;;4944766;29;20433;-70
2022/12/29 06:40:09;;;;;;;13.77;3.33;;;9.00;99.90;;;;;;4942053;28;20504;-69
2022/12/29 06:42:35;;;;;;;15.38;3.38;;;8.90;99.90;;;;;;4943177;28;20469;-71
2022/12/29 06:45:01;;;;;;;11.93;3.15;;;8.90;99.90;;;;;;4941806;28;20465;-70
2022/12/29 06:47:27;;;;;;;14.32;3.20;;;8.90;99.90;;;;;;4940266;28;20510;-70
2022/12/29 06:49:52;;;;;;;17.30;3.88;;;8.90;99.90;;;;;;4942565;29;20425;-71
2022/12/29 06:52:18;;;;;;;14.93;3.45;;;8.80;99.90;;;;;;4941583;28;21038;-70
2022/12/29 06:54:44;;;;;;;16.52;3.38;;;8.90;99.90;;;;;;4932515;28;20437;-68
2022/12/29 06:57:10;;;;;;;15.52;3.30;;;8.90;99.90;;;;;;4931942;28;20575;-70
2022/12/29 06:59:36;;;;;;;16.17;2.85;;;8.80;99.90;;;;;;4939530;28;20434;-70
2022/12/29 07:02:02;;;;;;;20.65;4.07;;;8.90;99.90;;;;;;4937862;28;20793;-69
2022/12/29 07:04:28;;;;;;;14.70;3.20;;;8.90;99.90;;;;;;4940832;28;20447;-71
2022/12/29 07:06:54;;;;;;;15.90;4.65;;;9.00;99.90;;;;;;4942621;28;20516;-69
2022/12/29 07:09:20;;;;;;;17.83;4.37;;;9.10;99.90;;;;;;4941381;29;20838;-71
2022/12/29 07:11:45;;;;;;;12.83;2.80;;;9.10;99.90;;;;;;4939456;28;20537;-71
2022/12/29 07:14:12;;;;;;;16.90;3.83;;;9.00;99.90;;;;;;4939930;28;20425;-68
2022/12/29 07:16:38;;;;;;;13.52;2.78;;;9.00;99.90;;;;;;4941335;28;20485;-71
2022/12/29 07:19:04;;;;;;;13.35;3.60;;;9.10;99.90;;;;;;4940413;28;20438;-70
2022/12/29 07:21:30;;;;;;;15.80;2.70;;;9.10;99.90;;;;;;4939508;28;20488;-71
2022/12/29 07:23:55;;;;;;;14.83;3.23;;;9.10;99.90;;;;;;4940727;28;20465;-72
2022/12/29 07:26:27;;;;;;;12.07;2.83;;;9.20;99.90;;;;;;5175838;23;20465;-82
2022/12/29 07:28:53;;;;;;;13.17;3.77;;;9.20;99.90;;;;;;4907825;29;20450;-80
2022/12/29 07:31:22;;;;;;;11.30;2.57;;;9.20;99.90;;;;;;4928232;29;20435;-81
2022/12/29 07:33:47;;;;;;;20.08;4.03;;;9.30;99.90;;;;;;4930075;29;20805;-80
2022/12/29 07:36:14;;;;;;;11.05;2.35;;;9.30;99.90;;;;;;4928816;29;20486;-80
2022/12/29 07:38:41;;;;;;;10.57;2.80;;;9.20;99.90;;;;;;4926420;29;20452;-82
2022/12/29 07:41:06;;;;;;;13.10;2.60;;;9.30;99.90;;;;;;4929013;29;20767;-82
2022/12/29 07:43:32;;;;;;;19.17;4.87;;;9.30;99.90;;;;;;4928726;29;20463;-79
2022/12/29 07:45:57;;;;;;;17.03;4.40;;;9.30;99.90;;;;;;4928483;29;20431;-82
2022/12/29 07:48:23;;;;;;;13.33;3.30;;;9.30;99.90;;;;;;4927752;29;20916;-82
2022/12/29 07:50:49;;;;;;;17.02;3.72;;;9.20;99.90;;;;;;4925851;29;20451;-79
2022/12/29 07:53:15;;;;;;;13.18;3.25;;;9.10;99.90;;;;;;4927607;29;20435;-82
2022/12/29 07:55:40;;;;;;;15.27;3.53;;;9.20;99.90;;;;;;4927941;29;21008;-81
2022/12/29 07:58:06;;;;;;;15.45;2.38;;;9.20;99.90;;;;;;4922695;29;20802;-82
2022/12/29 08:00:33;;;;;;;11.87;3.20;;;9.20;99.90;;;;;;4927818;29;20439;-80
2022/12/29 08:02:59;;;;;;;13.55;3.20;;;9.20;99.90;;;;;;4920419;29;20541;-82
2022/12/29 08:05:24;;;;;;;17.60;3.83;;;9.20;99.90;;;;;;4916446;29;20435;-80
2022/12/29 08:07:50;;;;;;;14.57;3.42;;;9.30;99.90;;;;;;4927834;29;20511;-81
2022/12/29 08:10:17;;;;;;;19.58;4.55;;;9.30;99.90;;;;;;4917382;29;20480;-82
2022/12/29 08:12:43;;;;;;;22.02;4.28;;;9.30;99.90;;;;;;4925584;29;20442;-82
2022/12/29 08:15:10;;;;;;;19.45;5.00;;;9.30;99.90;;;;;;4926356;29;20434;-83
2022/12/29 08:17:37;;;;;;;16.03;3.63;;;9.30;99.90;;;;;;4918802;29;20455;-79
2022/12/29 08:20:03;;;;;;;13.82;3.85;;;9.30;99.90;;;;;;4927127;29;20439;-79
2022/12/29 08:22:29;;;;;;;18.25;3.83;;;9.30;99.90;;;;;;4925298;29;20791;-81
2022/12/29 08:24:55;;;;;;;18.15;5.10;;;9.30;99.90;;;;;;4920113;29;20417;-81
2022/12/29 08:27:20;;;;;;;19.60;5.43;;;9.30;99.90;;;;;;4937389;28;20492;-79
2022/12/29 08:29:46;;;;;;;15.70;3.43;;;9.30;99.90;;;;;;4965889;28;22294;-82
2022/12/29 08:32:12;;;;;;;16.17;5.10;;;9.20;99.90;;;;;;4965848;28;20438;-82
2022/12/29 08:34:38;;;;;;;16.75;4.07;;;9.40;99.90;;;;;;4972512;28;20446;-79
2022/12/29 08:37:04;;;;;;;22.90;5.32;;;9.30;99.90;;;;;;4965381;28;20842;-83
2022/12/29 08:39:29;;;;;;;18.17;4.53;;;9.20;99.90;;;;;;4960265;28;20444;-82
2022/12/29 08:41:55;;;;;;;22.47;4.90;;;9.10;99.90;;;;;;4962907;28;20468;-75
2022/12/29 08:44:21;;;;;;;17.88;4.97;;;9.10;99.90;;;;;;4962051;28;20436;-81
2022/12/29 08:46:47;;;;;;;22.25;4.57;;;9.20;99.90;;;;;;4963716;28;20435;-82
2022/12/29 08:49:12;;;;;;;19.38;4.22;;;9.20;99.90;;;;;;4972049;28;20437;-81
2022/12/29 08:51:38;;;;;;;27.05;6.53;;;9.10;99.90;;;;;;4964407;28;20518;-81
2022/12/29 08:54:04;;;;;;;20.02;4.70;;;9.20;99.90;;;;;;4961361;28;20502;-81
2022/12/29 08:56:30;;;;;;;17.42;4.63;;;9.20;99.90;;;;;;4964256;28;20432;-80
2022/12/29 08:58:55;;;;;;;25.48;5.07;;;9.20;99.90;;;;;;4961343;28;21111;-81
2022/12/29 09:01:21;;;;;;;24.47;5.53;;;9.30;99.90;;;;;;4956695;28;20623;-81
2022/12/29 09:03:47;;;;;;;21.10;5.37;;;9.20;99.90;;;;;;4957227;28;20569;-82
2022/12/29 09:06:15;;;;;;;27.65;5.60;;;9.30;99.90;;;;;;4959097;28;20440;-79
2022/12/29 09:08:40;;;;;;;23.58;5.00;;;9.20;99.90;;;;;;4960882;28;20858;-76
2022/12/29 09:11:16;;;;;;;21.57;5.20;;;9.40;99.90;;;;;;4957850;28;20429;-78
2022/12/29 09:13:42;;;;;;;26.40;5.20;;;9.30;99.90;;;;;;4963552;28;20432;-79
2022/12/29 09:16:08;;;;;;;21.77;3.97;;;9.20;99.90;;;;;;4964714;28;20441;-80
2022/12/29 09:18:34;;;;;;;19.20;4.53;;;9.10;99.90;;;;;;4963687;28;20443;-78
2022/12/29 09:21:02;;;;;;;16.15;4.20;;;9.10;99.90;;;;;;4964792;28;20417;-79
2022/12/29 09:23:28;;;;;;;18.55;4.60;;;9.20;99.90;;;;;;4965352;28;20487;-79
2022/12/29 09:25:54;;;;;;;15.30;4.00;;;9.30;99.90;;;;;;4963170;28;20432;-79
2022/12/29 09:28:21;;;;;;;20.67;4.85;;;9.10;99.90;;;;;;4957859;28;20441;-78
2022/12/29 09:30:47;;;;;;;17.90;4.57;;;9.10;99.90;;;;;;4960094;28;20931;-80
2022/12/29 09:33:13;;;;;;;12.43;3.40;;;9.10;99.90;;;;;;4962184;28;20467;-80
2022/12/29 09:35:50;;;;;;;16.37;4.33;;;9.20;99.90;;;;;;4964671;28;20459;-80
2022/12/29 09:38:16;;;;;;;20.75;5.22;;;9.20;99.90;;;;;;4947052;28;20428;-80
2022/12/29 09:40:45;;;;;;;14.98;3.40;;;9.20;99.90;;;;;;4963814;28;20428;-80
2022/12/29 09:43:20;;;;;;;15.57;3.60;;;9.20;99.90;;;;;;4963058;28;22489;-80
2022/12/29 09:45:55;;;;;;;13.02;3.40;;;9.20;99.90;;;;;;4967365;28;20437;-80
2022/12/29 09:48:29;;;;;;;15.13;3.47;;;9.10;99.90;;;;;;4963148;28;20428;-79
2022/12/29 09:51:01;;;;;;;16.92;3.03;;;9.10;99.90;;;;;;4964977;28;20470;-76
2022/12/29 09:53:54;;;;;;;15.32;4.00;;;9.20;99.90;;;;;;4964927;28;20450;-77
2022/12/29 09:56:23;;;;;;;18.00;3.55;;;9.10;99.90;;;;;;4963893;28;20458;-78
2022/12/29 09:58:57;;;;;;;16.65;4.28;;;9.10;99.90;;;;;;4964067;28;20444;-77
2022/12/29 10:01:41;;;;;;;17.55;4.38;;;9.00;99.90;;;;;;4963332;28;20472;-77
2022/12/29 10:04:07;;;;;;;17.17;4.07;;;8.90;99.90;;;;;;4962197;28;20455;-78
2022/12/29 10:06:55;;;;;;;20.08;3.72;;;8.80;99.90;;;;;;4944115;28;20443;-78
2022/12/29 10:09:46;;;;;;;13.77;3.85;;;8.90;99.90;;;;;;4958138;28;20777;-77
2022/12/29 10:12:28;;;;;;;20.25;4.55;;;8.80;99.90;;;;;;4951916;28;20550;-77
2022/12/29 10:15:02;;;;;;;17.48;3.80;;;8.80;99.90;;;;;;4966849;28;20432;-77
2022/12/29 10:17:59;;;;;;;14.25;3.88;;;8.80;99.90;;;;;;4957641;28;20434;-77
2022/12/29 10:20:54;;;;;;;17.95;3.50;;;8.60;99.90;;;;;;4959943;28;20451;-77
2022/12/29 10:23:35;;;;;;;15.45;3.92;;;8.60;99.90;;;;;;4961373;28;20571;-77
2022/12/29 10:26:03;;;;;;;19.77;4.57;;;8.40;99.90;;;;;;4958584;28;21288;-76
2022/12/29 10:28:39;;;;;;;16.20;3.42;;;8.70;99.90;;;;;;4961451;28;20926;-77
2022/12/29 10:31:13;;;;;;;15.20;3.90;;;8.70;99.90;;;;;;4963606;28;20946;-76
2022/12/29 10:33:41;;;;;;;17.33;2.97;;;8.60;99.90;;;;;;4963312;28;20450;-77
2022/12/29 10:36:23;;;;;;;19.17;4.35;;;8.50;99.90;;;;;;4962532;28;20555;-76
2022/12/29 10:39:01;;;;;;;21.90;4.28;;;8.70;99.90;;;;;;4948767;28;20501;-74
2022/12/29 10:41:52;;;;;;;20.83;5.28;;;8.50;99.90;;;;;;4957866;28;20435;-76
2022/12/29 10:44:19;;;;;;;19.60;3.95;;;8.60;99.90;;;;;;4963121;28;20463;-75
2022/12/29 10:47:00;;;;;;;24.67;5.85;;;8.80;99.90;;;;;;4962015;28;20522;-75
2022/12/29 10:49:29;;;;;;;23.45;5.07;;;8.90;99.90;;;;;;4962720;28;20438;-75
2022/12/29 10:51:58;;;;;;;17.60;4.75;;;8.90;99.90;;;;;;4963772;28;20522;-77
2022/12/29 10:54:32;;;;;;;19.52;4.43;;;9.00;99.90;;;;;;4963829;28;20412;-75
2022/12/29 10:57:11;;;;;;;20.23;4.53;;;9.00;99.90;;;;;;4961538;28;20834;-76
2022/12/29 10:59:37;;;;;;;23.50;5.00;;;9.10;99.90;;;;;;4963994;28;20918;-75
2022/12/29 11:02:11;;;;;;;24.77;5.68;;;9.00;99.90;;;;;;4967520;28;20860;-76
2022/12/29 11:05:04;;;;;;;23.73;5.80;;;8.90;99.90;;;;;;4969159;28;20432;-77
2022/12/29 11:07:31;;;;;;;27.67;6.13;;;9.20;99.90;;;;;;4965831;28;20442;-78
2022/12/29 11:10:18;;;;;;;26.83;5.82;;;9.00;99.90;;;;;;4971780;28;20836;-78
2022/12/29 11:13:00;;;;;;;22.52;4.80;;;9.20;99.90;;;;;;4967403;28;20986;-77
2022/12/29 11:15:25;;;;;;;30.55;6.32;;;9.20;99.90;;;;;;4968752;28;20447;-78
2022/12/29 11:18:00;;;;;;;23.35;6.22;;;9.20;99.90;;;;;;4966367;28;20436;-77
2022/12/29 11:20:32;;;;;;;24.50;6.22;;;9.20;99.90;;;;;;4973945;28;20421;-78
2022/12/29 11:22:58;;;;;;;20.90;4.75;;;9.10;99.90;;;;;;4987598;28;20410;-78
2022/12/29 11:25:24;;;;;;;21.20;5.50;;;9.20;99.90;;;;;;4969184;28;20547;-78
2022/12/29 11:27:56;;;;;;;21.65;5.18;;;9.20;99.90;;;;;;4970001;28;20513;-78
2022/12/29 11:30:25;;;;;;;25.77;5.67;;;9.20;99.90;;;;;;4956139;28;20436;-77
2022/12/29 11:32:52;;;;;;;20.48;4.82;;;9.30;99.90;;;;;;4967850;28;20436;-78
2022/12/29 11:35:38;;;;;;;22.25;5.40;;;9.40;99.90;;;;;;4965487;28;20436;-79
2022/12/29 11:38:05;;;;;;;22.10;5.73;;;9.40;99.90;;;;;;4968151;28;20858;-78
2022/12/29 11:40:37;;;;;;;21.10;4.70;;;9.50;99.90;;;;;;4967338;28;20431;-79
2022/12/29 11:43:05;;;;;;;25.33;6.22;;;9.50;99.90;;;;;;4966882;28;20774;-78
2022/12/29 11:45:34;;;;;;;28.03;5.97;;;9.60;99.90;;;;;;4966927;28;20431;-77
2022/12/29 11:48:09;;;;;;;28.03;7.43;;;9.60;99.90;;;;;;4967254;28;20550;-78
2022/12/29 11:50:39;;;;;;;24.07;6.13;;;9.60;99.90;;;;;;4969064;28;20864;-77
2022/12/29 11:53:38;;;;;;;21.77;4.93;;;9.60;99.90;;;;;;4972965;28;20436;-78
2022/12/29 11:56:13;;;;;;;27.27;7.00;;;9.50;99.90;;;;;;4959215;28;20759;-78
2022/12/29 11:58:39;;;;;;;22.80;5.22;;;9.60;99.90;;;;;;4957688;28;20440;-77
2022/12/29 12:01:10;;;;;;;24.20;6.78;;;9.50;99.90;;;;;;4953894;28;20856;-78
2022/12/29 12:03:40;;;;;;;23.17;5.43;;;9.50;99.90;;;;;;4963288;28;20498;-78
2022/12/29 12:06:12;;;;;;;27.00;6.32;;;9.60;99.90;;;;;;4966920;28;20424;-75
2022/12/29 12:08:47;;;;;;;21.33;5.20;;;9.70;99.90;;;;;;4952869;28;20424;-75
2022/12/29 12:11:23;;;;;;;20.25;5.60;;;9.60;99.90;;;;;;4965850;28;20809;-76
2022/12/29 12:13:58;;;;;;;19.07;4.10;;;9.50;99.90;;;;;;4964863;28;20939;-76
2022/12/29 12:16:50;;;;;;;19.63;4.87;;;9.50;99.90;;;;;;4962966;28;20447;-76
2022/12/29 12:19:53;;;;;;;22.17;5.85;;;9.50;99.90;;;;;;4955469;28;20827;-76
2022/12/29 12:22:35;;;;;;;24.10;5.35;;;9.50;99.90;;;;;;4972637;28;20422;-76
2022/12/29 12:25:12;;;;;;;20.85;4.72;;;9.50;99.90;;;;;;4973997;28;20422;-76
2022/12/29 12:27:46;;;;;;;19.20;4.45;;;9.50;99.90;;;;;;4962461;28;20839;-76
2022/12/29 12:30:22;;;;;;;15.65;3.67;;;9.50;99.90;;;;;;4963021;28;20428;-76
2022/12/29 12:33:04;;;;;;;16.92;3.30;;;9.60;99.90;;;;;;4957697;28;20757;-76
2022/12/29 12:35:52;;;;;;;11.35;2.05;;;9.60;99.90;;;;;;4938516;28;20512;-76
2022/12/29 12:38:43;;;;;;;11.10;2.75;;;9.50;99.90;;;;;;4980116;28;20451;-78
2022/12/29 12:41:16;;;;;;;14.98;2.75;;;9.60;99.90;;;;;;4964810;28;20443;-78
2022/12/29 12:44:23;;;;;;;13.70;3.03;;;9.40;99.90;;;;;;4965535;28;20482;-78
2022/12/29 12:47:07;;;;;;;12.15;2.75;;;9.40;99.90;;;;;;4964191;28;20443;-77
2022/12/29 12:50:05;;;;;;;13.30;2.80;;;9.40;99.90;;;;;;4963141;28;20527;-79
2022/12/29 12:53:07;;;;;;;13.52;2.45;;;9.40;99.90;;;;;;4957732;28;20446;-77
2022/12/29 12:55:40;;;;;;;12.30;3.20;;;9.40;99.90;;;;;;4963231;28;20435;-79
2022/12/29 12:58:29;;;;;;;14.00;3.40;;;9.30;99.90;;;;;;4961986;28;20837;-79
2022/12/29 13:01:03;;;;;;;14.15;3.58;;;9.40;99.90;;;;;;4949573;28;20778;-77
2022/12/29 13:03:47;;;;;;;16.25;3.65;;;9.40;99.90;;;;;;4960748;28;20445;-79
2022/12/29 13:06:18;;;;;;;12.52;3.47;;;9.50;99.90;;;;;;4964329;28;20443;-76
2022/12/29 13:08:44;;;;;;;17.55;4.18;;;9.50;99.90;;;;;;4962742;28;20424;-79
2022/12/29 13:11:23;;;;;;;13.85;3.35;;;9.50;99.90;;;;;;4956048;28;20852;-78
2022/12/29 13:14:14;;;;;;;9.73;2.72;;;9.50;99.90;;;;;;4969461;28;20453;-79
2022/12/29 13:17:03;;;;;;;11.43;2.17;;;9.40;99.90;;;;;;4959639;28;20545;-79
2022/12/29 13:19:47;;;;;;;9.15;2.25;;;9.40;99.90;;;;;;4958192;28;20437;-79
2022/12/29 13:22:41;;;;;;;15.75;3.53;;;9.40;99.90;;;;;;4955466;28;21020;-77
2022/12/29 13:25:12;;;;;;;12.68;2.60;;;9.40;99.90;;;;;;4961142;28;20441;-79
2022/12/29 13:28:01;;;;;;;14.48;4.10;;;9.40;99.90;;;;;;4963868;28;20432;-80
2022/12/29 13:30:48;;;;;;;11.73;3.28;;;9.30;99.90;;;;;;4957764;28;20437;-79
2022/12/29 13:33:28;;;;;;;13.30;2.25;;;9.30;99.90;;;;;;4966002;28;20434;-77
2022/12/29 13:36:00;;;;;;;9.05;1.98;;;9.40;99.90;;;;;;4969940;28;20436;-77
2022/12/29 13:38:48;;;;;;;12.95;3.13;;;9.50;99.90;;;;;;4963707;28;20432;-79
2022/12/29 13:41:25;;;;;;;10.98;2.40;;;9.60;99.90;;;;;;4962091;28;20514;-78